Aurora, Kansas
Current Conditions -  °F | °C
As of 6:55 PM on Monday 26 Jan 2015 (Local Time) from KCNK Reporting Station
Clear Clear  
Wind Chill: 55°   Ceiling: Unl
Heat Index: 55°   Visibility: 10mi
Dew Point: 33°   Wind: 6mph
Humidity: 43%   Direction: 350°N
Pressure: 30.03"   Gusts: NA
Location:  39.45°N, 97.53°W
Report Text: KCNK 270055Z AUTO 35005KT 10SM CLR 13/01 A3003 RMK AO2 SLP173 T01280006
Loading
Personal Weather Stations






























Interactive Weather Map New forecast layout! Learn more

10-Day Weather Forecast

Advertisements
Track Severe Weather on mobile